sensor_id;sensor_type;location;lat;lon;timestamp;temperature;humidity
17529;DHT22;8882;53.192;8.184;2023-04-24T04:30:52;10.20;99.90
17529;DHT22;8882;53.192;8.184;2023-04-24T04:33:20;10.30;99.90
17529;DHT22;8882;53.192;8.184;2023-04-24T04:35:46;10.20;99.90
17529;DHT22;8882;53.192;8.184;2023-04-24T04:38:14;10.20;99.90
17529;DHT22;8882;53.192;8.184;2023-04-24T04:40:40;10.20;99.90
17529;DHT22;8882;53.192;8.184;2023-04-24T04:43:06;10.20;99.90
17529;DHT22;8882;53.192;8.184;2023-04-24T04:45:31;10.20;99.90
17529;DHT22;8882;53.192;8.184;2023-04-24T04:47:58;10.20;99.90
17529;DHT22;8882;53.192;8.184;2023-04-24T04:50:26;10.20;99.90
17529;DHT22;8882;53.192;8.184;2023-04-24T04:52:52;10.20;99.90
17529;DHT22;8882;53.192;8.184;2023-04-24T04:55:17;10.20;99.90
17529;DHT22;8882;53.192;8.184;2023-04-24T04:57:45;10.10;99.90
17529;DHT22;8882;53.192;8.184;2023-04-24T05:00:11;10.20;99.90
17529;DHT22;8882;53.192;8.184;2023-04-24T05:02:37;10.10;99.90
17529;DHT22;8882;53.192;8.184;2023-04-24T05:05:03;10.00;99.90
17529;DHT22;8882;53.192;8.184;2023-04-24T05:07:28;10.00;99.90
17529;DHT22;8882;53.192;8.184;2023-04-24T05:09:54;10.00;99.90
17529;DHT22;8882;53.192;8.184;2023-04-24T05:12:19;10.00;99.90
17529;DHT22;8882;53.192;8.184;2023-04-24T05:14:45;10.00;99.90
17529;DHT22;8882;53.192;8.184;2023-04-24T05:17:10;9.90;99.90
17529;DHT22;8882;53.192;8.184;2023-04-24T05:19:36;10.00;99.90
17529;DHT22;8882;53.192;8.184;2023-04-24T05:22:04;10.00;99.90
17529;DHT22;8882;53.192;8.184;2023-04-24T05:24:35;10.00;99.90
17529;DHT22;8882;53.192;8.184;2023-04-24T05:27:00;10.00;99.90
17529;DHT22;8882;53.192;8.184;2023-04-24T05:29:27;10.00;99.90
17529;DHT22;8882;53.192;8.184;2023-04-24T05:31:53;10.00;99.90
17529;DHT22;8882;53.192;8.184;2023-04-24T05:34:18;10.00;99.90
17529;DHT22;8882;53.192;8.184;2023-04-24T05:36:44;10.00;99.90
17529;DHT22;8882;53.192;8.184;2023-04-24T05:39:09;10.00;99.90
17529;DHT22;8882;53.192;8.184;2023-04-24T05:41:35;10.00;99.90
17529;DHT22;8882;53.192;8.184;2023-04-24T05:44:00;10.00;99.90
17529;DHT22;8882;53.192;8.184;2023-04-24T05:46:26;10.00;99.90
17529;DHT22;8882;53.192;8.184;2023-04-24T05:48:52;10.00;99.90
17529;DHT22;8882;53.192;8.184;2023-04-24T05:51:17;10.00;99.90
17529;DHT22;8882;53.192;8.184;2023-04-24T05:53:42;10.00;99.90
17529;DHT22;8882;53.192;8.184;2023-04-24T05:56:08;10.00;99.90
17529;DHT22;8882;53.192;8.184;2023-04-24T05:58:34;10.00;99.90
17529;DHT22;8882;53.192;8.184;2023-04-24T06:00:59;10.00;99.90
17529;DHT22;8882;53.192;8.184;2023-04-24T06:03:26;10.10;99.90
17529;DHT22;8882;53.192;8.184;2023-04-24T06:05:53;10.10;99.90
17529;DHT22;8882;53.192;8.184;2023-04-24T06:08:18;10.10;99.90
17529;DHT22;8882;53.192;8.184;2023-04-24T06:10:44;10.10;99.90
17529;DHT22;8882;53.192;8.184;2023-04-24T06:13:09;10.10;99.90
17529;DHT22;8882;53.192;8.184;2023-04-24T06:15:35;10.10;99.90
17529;DHT22;8882;53.192;8.184;2023-04-24T06:18:00;10.20;99.90
17529;DHT22;8882;53.192;8.184;2023-04-24T06:20:26;10.20;99.90
17529;DHT22;8882;53.192;8.184;2023-04-24T06:22:52;10.20;99.90
17529;DHT22;8882;53.192;8.184;2023-04-24T06:25:18;10.20;99.90
17529;DHT22;8882;53.192;8.184;2023-04-24T06:27:44;10.20;99.90
17529;DHT22;8882;53.192;8.184;2023-04-24T06:30:10;10.20;99.90
17529;DHT22;8882;53.192;8.184;2023-04-24T06:32:36;10.20;99.90
17529;DHT22;8882;53.192;8.184;2023-04-24T06:35:01;10.20;99.90
17529;DHT22;8882;53.192;8.184;2023-04-24T06:37:27;10.20;99.90
17529;DHT22;8882;53.192;8.184;2023-04-24T06:39:53;10.20;99.90
17529;DHT22;8882;53.192;8.184;2023-04-24T06:42:18;10.20;99.90
17529;DHT22;8882;53.192;8.184;2023-04-24T06:44:46;10.10;99.90
17529;DHT22;8882;53.192;8.184;2023-04-24T06:47:11;10.20;99.90
17529;DHT22;8882;53.192;8.184;2023-04-24T06:49:39;10.10;99.90
17529;DHT22;8882;53.192;8.184;2023-04-24T06:52:05;10.20;99.90
17529;DHT22;8882;53.192;8.184;2023-04-24T06:54:32;10.20;99.90
17529;DHT22;8882;53.192;8.184;2023-04-24T06:56:58;10.20;99.90
17529;DHT22;8882;53.192;8.184;2023-04-24T06:59:24;10.20;99.90
17529;DHT22;8882;53.192;8.184;2023-04-24T07:01:50;10.20;99.90
17529;DHT22;8882;53.192;8.184;2023-04-24T07:04:16;10.20;99.90
17529;DHT22;8882;53.192;8.184;2023-04-24T07:06:42;10.30;99.90
17529;DHT22;8882;53.192;8.184;2023-04-24T07:09:08;10.20;99.90
17529;DHT22;8882;53.192;8.184;2023-04-24T07:11:35;10.40;99.90
17529;DHT22;8882;53.192;8.184;2023-04-24T07:14:00;10.30;99.90
17529;DHT22;8882;53.192;8.184;2023-04-24T07:16:26;10.40;99.90
17529;DHT22;8882;53.192;8.184;2023-04-24T07:18:52;10.40;99.90
17529;DHT22;8882;53.192;8.184;2023-04-24T07:21:17;10.40;99.90
17529;DHT22;8882;53.192;8.184;2023-04-24T07:23:43;10.40;99.90
17529;DHT22;8882;53.192;8.184;2023-04-24T07:26:08;10.40;99.90
17529;DHT22;8882;53.192;8.184;2023-04-24T07:28:34;10.40;99.90
17529;DHT22;8882;53.192;8.184;2023-04-24T07:31:00;10.40;99.90
17529;DHT22;8882;53.192;8.184;2023-04-24T07:33:26;10.40;99.90
17529;DHT22;8882;53.192;8.184;2023-04-24T07:35:52;10.30;99.90
17529;DHT22;8882;53.192;8.184;2023-04-24T07:38:17;10.40;99.90
17529;DHT22;8882;53.192;8.184;2023-04-24T07:40:46;10.30;99.90
17529;DHT22;8882;53.192;8.184;2023-04-24T07:43:12;10.30;99.90
17529;DHT22;8882;53.192;8.184;2023-04-24T07:45:37;10.40;99.90
17529;DHT22;8882;53.192;8.184;2023-04-24T07:48:04;10.30;99.90
17529;DHT22;8882;53.192;8.184;2023-04-24T07:50:30;10.30;99.90
17529;DHT22;8882;53.192;8.184;2023-04-24T07:52:56;10.30;99.90
17529;DHT22;8882;53.192;8.184;2023-04-24T07:55:21;10.40;99.90
17529;DHT22;8882;53.192;8.184;2023-04-24T07:57:47;10.40;99.90
17529;DHT22;8882;53.192;8.184;2023-04-24T08:00:13;10.50;99.90
17529;DHT22;8882;53.192;8.184;2023-04-24T08:02:38;10.50;99.90
17529;DHT22;8882;53.192;8.184;2023-04-24T08:05:04;10.50;99.90
17529;DHT22;8882;53.192;8.184;2023-04-24T08:07:31;10.50;99.90
17529;DHT22;8882;53.192;8.184;2023-04-24T08:09:56;10.50;99.90
17529;DHT22;8882;53.192;8.184;2023-04-24T08:12:22;10.60;99.90
17529;DHT22;8882;53.192;8.184;2023-04-24T08:14:47;10.60;99.90
17529;DHT22;8882;53.192;8.184;2023-04-24T08:17:13;10.60;99.90
17529;DHT22;8882;53.192;8.184;2023-04-24T08:19:40;10.70;99.90
17529;DHT22;8882;53.192;8.184;2023-04-24T08:22:09;10.80;99.90
17529;DHT22;8882;53.192;8.184;2023-04-24T08:24:35;10.80;99.90
17529;DHT22;8882;53.192;8.184;2023-04-24T08:27:01;10.90;99.90
17529;DHT22;8882;53.192;8.184;2023-04-24T08:29:27;10.90;99.90
17529;DHT22;8882;53.192;8.184;2023-04-24T08:31:52;10.90;99.90
17529;DHT22;8882;53.192;8.184;2023-04-24T08:34:20;10.90;99.90
17529;DHT22;8882;53.192;8.184;2023-04-24T08:36:46;10.90;99.90
17529;DHT22;8882;53.192;8.184;2023-04-24T08:39:11;10.90;99.90
17529;DHT22;8882;53.192;8.184;2023-04-24T08:41:37;10.90;99.90
17529;DHT22;8882;53.192;8.184;2023-04-24T08:44:03;10.90;99.90
17529;DHT22;8882;53.192;8.184;2023-04-24T08:46:30;10.90;99.90
17529;DHT22;8882;53.192;8.184;2023-04-24T08:48:56;10.90;99.90
17529;DHT22;8882;53.192;8.184;2023-04-24T08:51:24;10.80;99.90
17529;DHT22;8882;53.192;8.184;2023-04-24T08:53:53;10.90;99.90
17529;DHT22;8882;53.192;8.184;2023-04-24T08:56:21;10.90;99.90
17529;DHT22;8882;53.192;8.184;2023-04-24T08:58:51;10.80;99.90
17529;DHT22;8882;53.192;8.184;2023-04-24T09:01:21;10.90;99.90
17529;DHT22;8882;53.192;8.184;2023-04-24T09:03:49;10.80;99.90
17529;DHT22;8882;53.192;8.184;2023-04-24T09:06:16;10.80;99.90
17529;DHT22;8882;53.192;8.184;2023-04-24T09:08:43;10.80;99.90
17529;DHT22;8882;53.192;8.184;2023-04-24T09:11:11;10.80;99.90
17529;DHT22;8882;53.192;8.184;2023-04-24T09:13:37;10.80;99.90
17529;DHT22;8882;53.192;8.184;2023-04-24T09:16:03;10.80;99.90
17529;DHT22;8882;53.192;8.184;2023-04-24T09:18:28;10.70;99.90
17529;DHT22;8882;53.192;8.184;2023-04-24T09:21:01;10.70;99.90
17529;DHT22;8882;53.192;8.184;2023-04-24T09:23:31;10.60;99.90
17529;DHT22;8882;53.192;8.184;2023-04-24T09:25:58;10.60;99.90
17529;DHT22;8882;53.192;8.184;2023-04-24T09:28:32;10.70;99.90
17529;DHT22;8882;53.192;8.184;2023-04-24T09:33:32;10.50;99.90
17529;DHT22;8882;53.192;8.184;2023-04-24T09:35:58;10.40;99.90
17529;DHT22;8882;53.192;8.184;2023-04-24T09:38:36;10.30;99.90
17529;DHT22;8882;53.192;8.184;2023-04-24T09:41:06;10.40;99.90
17529;DHT22;8882;53.192;8.184;2023-04-24T09:43:33;10.30;99.90
17529;DHT22;8882;53.192;8.184;2023-04-24T09:46:07;10.20;99.90
17529;DHT22;8882;53.192;8.184;2023-04-24T09:48:37;10.20;99.90
17529;DHT22;8882;53.192;8.184;2023-04-24T09:51:05;10.20;99.90
17529;DHT22;8882;53.192;8.184;2023-04-24T09:53:32;10.20;99.90
17529;DHT22;8882;53.192;8.184;2023-04-24T09:56:08;10.20;99.90
17529;DHT22;8882;53.192;8.184;2023-04-24T09:58:35;10.10;99.90
17529;DHT22;8882;53.192;8.184;2023-04-24T10:01:01;10.10;99.90
17529;DHT22;8882;53.192;8.184;2023-04-24T10:03:31;10.20;99.90
17529;DHT22;8882;53.192;8.184;2023-04-24T10:06:00;10.30;99.90
17529;DHT22;8882;53.192;8.184;2023-04-24T10:08:26;10.40;99.90
17529;DHT22;8882;53.192;8.184;2023-04-24T10:10:58;10.40;99.90
17529;DHT22;8882;53.192;8.184;2023-04-24T10:13:24;10.40;99.90
17529;DHT22;8882;53.192;8.184;2023-04-24T10:15:50;10.20;99.90
17529;DHT22;8882;53.192;8.184;2023-04-24T10:18:16;10.30;99.90
17529;DHT22;8882;53.192;8.184;2023-04-24T10:20:43;10.30;99.90
17529;DHT22;8882;53.192;8.184;2023-04-24T10:23:08;10.40;99.90
17529;DHT22;8882;53.192;8.184;2023-04-24T10:25:35;10.60;99.90
17529;DHT22;8882;53.192;8.184;2023-04-24T10:28:02;10.60;99.90
17529;DHT22;8882;53.192;8.184;2023-04-24T10:30:31;10.50;99.90
17529;DHT22;8882;53.192;8.184;2023-04-24T10:33:00;10.50;99.90
17529;DHT22;8882;53.192;8.184;2023-04-24T10:35:26;10.60;99.90
17529;DHT22;8882;53.192;8.184;2023-04-24T10:38:03;10.40;99.90
17529;DHT22;8882;53.192;8.184;2023-04-24T10:40:32;10.40;99.90
17529;DHT22;8882;53.192;8.184;2023-04-24T10:42:59;10.40;99.90
17529;DHT22;8882;53.192;8.184;2023-04-24T10:45:25;10.40;99.90
17529;DHT22;8882;53.192;8.184;2023-04-24T10:50:41;10.30;99.90
17529;DHT22;8882;53.192;8.184;2023-04-24T10:53:16;10.20;99.90
17529;DHT22;8882;53.192;8.184;2023-04-24T10:55:51;10.00;99.90
17529;DHT22;8882;53.192;8.184;2023-04-24T10:58:21;10.00;99.90
17529;DHT22;8882;53.192;8.184;2023-04-24T11:00:59;9.90;99.90
17529;DHT22;8882;53.192;8.184;2023-04-24T11:03:32;9.90;99.90
17529;DHT22;8882;53.192;8.184;2023-04-24T11:08:31;9.70;99.90
17529;DHT22;8882;53.192;8.184;2023-04-24T11:11:12;9.70;99.90
17529;DHT22;8882;53.192;8.184;2023-04-24T11:22:02;9.70;99.90
17529;DHT22;8882;53.192;8.184;2023-04-24T11:29:42;9.70;99.90
17529;DHT22;8882;53.192;8.184;2023-04-24T11:32:24;10.00;99.90
17529;DHT22;8882;53.192;8.184;2023-04-24T11:34:51;10.00;99.90
17529;DHT22;8882;53.192;8.184;2023-04-24T11:37:17;10.10;99.90
17529;DHT22;8882;53.192;8.184;2023-04-24T11:39:43;10.10;99.90
17529;DHT22;8882;53.192;8.184;2023-04-24T11:42:09;10.10;99.90
17529;DHT22;8882;53.192;8.184;2023-04-24T11:44:35;10.10;99.90
17529;DHT22;8882;53.192;8.184;2023-04-24T11:47:04;10.20;99.90
17529;DHT22;8882;53.192;8.184;2023-04-24T11:49:30;10.20;99.90
17529;DHT22;8882;53.192;8.184;2023-04-24T11:51:55;10.20;99.90
17529;DHT22;8882;53.192;8.184;2023-04-24T11:54:21;10.20;99.90
17529;DHT22;8882;53.192;8.184;2023-04-24T11:56:47;10.20;99.90
17529;DHT22;8882;53.192;8.184;2023-04-24T11:59:13;10.20;99.90
17529;DHT22;8882;53.192;8.184;2023-04-24T12:01:43;10.20;99.90
17529;DHT22;8882;53.192;8.184;2023-04-24T12:04:09;10.20;99.90
17529;DHT22;8882;53.192;8.184;2023-04-24T12:06:35;10.20;99.90
17529;DHT22;8882;53.192;8.184;2023-04-24T12:09:00;10.00;99.90
17529;DHT22;8882;53.192;8.184;2023-04-24T12:11:26;10.00;99.90
17529;DHT22;8882;53.192;8.184;2023-04-24T12:13:51;9.90;99.90
17529;DHT22;8882;53.192;8.184;2023-04-24T12:16:17;9.80;99.90
17529;DHT22;8882;53.192;8.184;2023-04-24T12:18:44;9.70;99.90
17529;DHT22;8882;53.192;8.184;2023-04-24T12:21:20;9.60;99.90
17529;DHT22;8882;53.192;8.184;2023-04-24T12:23:46;9.40;99.90
17529;DHT22;8882;53.192;8.184;2023-04-24T12:26:16;9.30;99.90
17529;DHT22;8882;53.192;8.184;2023-04-24T12:28:42;9.30;99.90
17529;DHT22;8882;53.192;8.184;2023-04-24T12:31:07;9.30;99.90
17529;DHT22;8882;53.192;8.184;2023-04-24T12:33:34;9.20;99.90
17529;DHT22;8882;53.192;8.184;2023-04-24T12:36:00;9.20;99.90
17529;DHT22;8882;53.192;8.184;2023-04-24T12:38:28;9.10;99.90
17529;DHT22;8882;53.192;8.184;2023-04-24T12:41:13;9.10;99.90
17529;DHT22;8882;53.192;8.184;2023-04-24T12:43:38;9.10;99.90
17529;DHT22;8882;53.192;8.184;2023-04-24T12:46:15;9.00;99.90
17529;DHT22;8882;53.192;8.184;2023-04-24T12:48:41;9.00;99.90
17529;DHT22;8882;53.192;8.184;2023-04-24T12:51:06;9.00;99.90
17529;DHT22;8882;53.192;8.184;2023-04-24T12:53:32;8.90;99.90
17529;DHT22;8882;53.192;8.184;2023-04-24T12:55:57;8.90;99.90
17529;DHT22;8882;53.192;8.184;2023-04-24T12:58:23;8.90;99.90
17529;DHT22;8882;53.192;8.184;2023-04-24T13:00:48;8.90;99.90
17529;DHT22;8882;53.192;8.184;2023-04-24T13:03:14;8.90;99.90
17529;DHT22;8882;53.192;8.184;2023-04-24T13:05:41;8.90;99.90
17529;DHT22;8882;53.192;8.184;2023-04-24T13:08:07;9.00;99.90
17529;DHT22;8882;53.192;8.184;2023-04-24T13:10:33;9.00;99.90
17529;DHT22;8882;53.192;8.184;2023-04-24T13:12:59;9.00;99.90
17529;DHT22;8882;53.192;8.184;2023-04-24T13:15:25;9.00;99.90
17529;DHT22;8882;53.192;8.184;2023-04-24T13:17:50;9.10;99.90
17529;DHT22;8882;53.192;8.184;2023-04-24T13:20:16;9.00;99.90
17529;DHT22;8882;53.192;8.184;2023-04-24T13:22:42;9.00;99.90
17529;DHT22;8882;53.192;8.184;2023-04-24T13:25:08;9.00;99.90
17529;DHT22;8882;53.192;8.184;2023-04-24T13:27:34;9.00;99.90
17529;DHT22;8882;53.192;8.184;2023-04-24T13:30:00;9.00;99.90
17529;DHT22;8882;53.192;8.184;2023-04-24T13:32:25;9.10;99.90
17529;DHT22;8882;53.192;8.184;2023-04-24T13:34:52;9.00;99.90
17529;DHT22;8882;53.192;8.184;2023-04-24T13:37:17;9.00;99.90
17529;DHT22;8882;53.192;8.184;2023-04-24T13:39:43;9.00;99.90
17529;DHT22;8882;53.192;8.184;2023-04-24T13:42:08;9.00;99.90
17529;DHT22;8882;53.192;8.184;2023-04-24T13:44:34;9.00;99.90
17529;DHT22;8882;53.192;8.184;2023-04-24T13:46:59;9.00;99.90
17529;DHT22;8882;53.192;8.184;2023-04-24T13:49:25;9.00;99.90
17529;DHT22;8882;53.192;8.184;2023-04-24T13:51:52;9.00;99.90
17529;DHT22;8882;53.192;8.184;2023-04-24T13:54:18;9.00;99.90
17529;DHT22;8882;53.192;8.184;2023-04-24T13:56:43;9.00;99.90
17529;DHT22;8882;53.192;8.184;2023-04-24T13:59:09;9.00;99.90
17529;DHT22;8882;53.192;8.184;2023-04-24T14:01:35;8.90;99.90
17529;DHT22;8882;53.192;8.184;2023-04-24T14:04:00;9.00;99.90
17529;DHT22;8882;53.192;8.184;2023-04-24T14:06:26;9.00;99.90
17529;DHT22;8882;53.192;8.184;2023-04-24T14:08:52;9.10;99.90
17529;DHT22;8882;53.192;8.184;2023-04-24T14:11:18;9.20;99.90
17529;DHT22;8882;53.192;8.184;2023-04-24T14:13:44;9.20;99.90
17529;DHT22;8882;53.192;8.184;2023-04-24T14:16:11;9.30;99.90
17529;DHT22;8882;53.192;8.184;2023-04-24T14:18:36;9.20;99.90
17529;DHT22;8882;53.192;8.184;2023-04-24T14:21:03;9.20;99.90
17529;DHT22;8882;53.192;8.184;2023-04-24T14:23:28;9.20;99.90
17529;DHT22;8882;53.192;8.184;2023-04-24T14:25:54;9.20;99.90
17529;DHT22;8882;53.192;8.184;2023-04-24T14:28:20;9.20;99.90
17529;DHT22;8882;53.192;8.184;2023-04-24T14:30:47;9.20;99.90
17529;DHT22;8882;53.192;8.184;2023-04-24T14:33:13;9.30;99.90
17529;DHT22;8882;53.192;8.184;2023-04-24T14:35:42;9.30;99.90
17529;DHT22;8882;53.192;8.184;2023-04-24T14:38:08;9.20;99.90
17529;DHT22;8882;53.192;8.184;2023-04-24T14:40:34;9.10;99.90
17529;DHT22;8882;53.192;8.184;2023-04-24T14:43:00;9.10;99.90
17529;DHT22;8882;53.192;8.184;2023-04-24T14:45:25;9.00;99.90
17529;DHT22;8882;53.192;8.184;2023-04-24T14:47:51;9.00;99.90
17529;DHT22;8882;53.192;8.184;2023-04-24T14:50:17;8.90;99.90
17529;DHT22;8882;53.192;8.184;2023-04-24T14:52:43;8.90;99.90
17529;DHT22;8882;53.192;8.184;2023-04-24T14:55:08;8.90;99.90
17529;DHT22;8882;53.192;8.184;2023-04-24T14:57:34;8.90;99.90
17529;DHT22;8882;53.192;8.184;2023-04-24T15:00:05;9.00;99.90
17529;DHT22;8882;53.192;8.184;2023-04-24T15:02:34;9.00;99.90
17529;DHT22;8882;53.192;8.184;2023-04-24T15:04:59;9.10;99.90
17529;DHT22;8882;53.192;8.184;2023-04-24T15:07:25;9.10;99.90
17529;DHT22;8882;53.192;8.184;2023-04-24T15:09:50;9.10;99.90
17529;DHT22;8882;53.192;8.184;2023-04-24T15:12:16;9.10;99.90
17529;DHT22;8882;53.192;8.184;2023-04-24T15:14:41;9.10;99.90
17529;DHT22;8882;53.192;8.184;2023-04-24T15:17:07;9.10;99.90
17529;DHT22;8882;53.192;8.184;2023-04-24T15:19:32;9.10;99.90
17529;DHT22;8882;53.192;8.184;2023-04-24T15:21:58;9.10;99.90
17529;DHT22;8882;53.192;8.184;2023-04-24T15:24:23;9.00;99.90
17529;DHT22;8882;53.192;8.184;2023-04-24T15:26:49;9.00;99.90
17529;DHT22;8882;53.192;8.184;2023-04-24T15:29:15;9.00;99.90
17529;DHT22;8882;53.192;8.184;2023-04-24T15:31:40;8.90;99.90
17529;DHT22;8882;53.192;8.184;2023-04-24T15:34:06;8.90;99.90
17529;DHT22;8882;53.192;8.184;2023-04-24T15:36:32;8.90;99.90
17529;DHT22;8882;53.192;8.184;2023-04-24T15:38:58;8.90;99.90
17529;DHT22;8882;53.192;8.184;2023-04-24T15:41:23;8.80;99.90
17529;DHT22;8882;53.192;8.184;2023-04-24T15:43:49;8.80;99.90
17529;DHT22;8882;53.192;8.184;2023-04-24T15:46:15;8.90;99.90
17529;DHT22;8882;53.192;8.184;2023-04-24T15:48:41;9.50;99.90
17529;DHT22;8882;53.192;8.184;2023-04-24T15:51:07;9.70;99.90
17529;DHT22;8882;53.192;8.184;2023-04-24T15:53:33;10.20;99.90
17529;DHT22;8882;53.192;8.184;2023-04-24T15:55:59;10.50;99.90
17529;DHT22;8882;53.192;8.184;2023-04-24T15:58:24;10.50;99.90
17529;DHT22;8882;53.192;8.184;2023-04-24T16:00:50;10.40;99.90
17529;DHT22;8882;53.192;8.184;2023-04-24T16:03:16;10.10;99.90
17529;DHT22;8882;53.192;8.184;2023-04-24T16:05:41;9.90;99.90
17529;DHT22;8882;53.192;8.184;2023-04-24T16:08:07;9.70;99.90
17529;DHT22;8882;53.192;8.184;2023-04-24T16:10:32;9.50;99.90
17529;DHT22;8882;53.192;8.184;2023-04-24T16:12:58;9.40;99.90
17529;DHT22;8882;53.192;8.184;2023-04-24T16:15:28;9.40;99.90
17529;DHT22;8882;53.192;8.184;2023-04-24T16:17:54;9.30;99.90
17529;DHT22;8882;53.192;8.184;2023-04-24T16:20:20;9.10;99.90
17529;DHT22;8882;53.192;8.184;2023-04-24T16:22:45;8.90;99.90
17529;DHT22;8882;53.192;8.184;2023-04-24T16:25:11;8.90;99.90
17529;DHT22;8882;53.192;8.184;2023-04-24T16:27:36;8.80;99.90
17529;DHT22;8882;53.192;8.184;2023-04-24T16:30:03;8.80;99.90
17529;DHT22;8882;53.192;8.184;2023-04-24T16:32:29;8.80;99.90
17529;DHT22;8882;53.192;8.184;2023-04-24T16:34:54;8.80;99.90
17529;DHT22;8882;53.192;8.184;2023-04-24T16:37:20;8.80;99.90
17529;DHT22;8882;53.192;8.184;2023-04-24T16:39:45;8.80;99.90
17529;DHT22;8882;53.192;8.184;2023-04-24T16:42:12;8.90;99.90
17529;DHT22;8882;53.192;8.184;2023-04-24T16:44:38;8.80;99.90
17529;DHT22;8882;53.192;8.184;2023-04-24T16:47:08;8.80;99.90
17529;DHT22;8882;53.192;8.184;2023-04-24T16:49:34;8.90;99.90
17529;DHT22;8882;53.192;8.184;2023-04-24T16:52:01;8.90;99.90
17529;DHT22;8882;53.192;8.184;2023-04-24T16:54:26;8.90;99.90
17529;DHT22;8882;53.192;8.184;2023-04-24T16:56:53;8.90;99.90
17529;DHT22;8882;53.192;8.184;2023-04-24T16:59:19;8.80;99.90
17529;DHT22;8882;53.192;8.184;2023-04-24T17:01:44;8.90;99.90
17529;DHT22;8882;53.192;8.184;2023-04-24T17:04:10;8.90;99.90
17529;DHT22;8882;53.192;8.184;2023-04-24T17:06:35;8.90;99.90
17529;DHT22;8882;53.192;8.184;2023-04-24T17:09:01;8.90;99.90
17529;DHT22;8882;53.192;8.184;2023-04-24T17:11:28;8.90;99.90
17529;DHT22;8882;53.192;8.184;2023-04-24T17:13:53;8.90;99.90
17529;DHT22;8882;53.192;8.184;2023-04-24T17:16:19;8.80;99.90
17529;DHT22;8882;53.192;8.184;2023-04-24T17:18:44;8.70;99.90
17529;DHT22;8882;53.192;8.184;2023-04-24T17:21:10;8.80;99.90
17529;DHT22;8882;53.192;8.184;2023-04-24T17:23:36;8.80;99.90
17529;DHT22;8882;53.192;8.184;2023-04-24T17:26:01;8.80;99.90
17529;DHT22;8882;53.192;8.184;2023-04-24T17:28:29;8.80;99.90
17529;DHT22;8882;53.192;8.184;2023-04-24T17:30:55;8.80;99.90
17529;DHT22;8882;53.192;8.184;2023-04-24T17:33:28;8.80;99.90
17529;DHT22;8882;53.192;8.184;2023-04-24T17:35:55;8.80;99.90
17529;DHT22;8882;53.192;8.184;2023-04-24T17:38:22;8.80;99.90
17529;DHT22;8882;53.192;8.184;2023-04-24T17:40:48;8.80;99.90
17529;DHT22;8882;53.192;8.184;2023-04-24T17:43:18;8.80;99.90
17529;DHT22;8882;53.192;8.184;2023-04-24T17:45:44;8.80;99.90
17529;DHT22;8882;53.192;8.184;2023-04-24T17:48:11;8.70;99.90
17529;DHT22;8882;53.192;8.184;2023-04-24T17:50:36;8.70;99.90
17529;DHT22;8882;53.192;8.184;2023-04-24T17:53:02;8.70;99.90
17529;DHT22;8882;53.192;8.184;2023-04-24T17:55:27;8.70;99.90
17529;DHT22;8882;53.192;8.184;2023-04-24T17:57:53;8.70;99.90
17529;DHT22;8882;53.192;8.184;2023-04-24T18:00:19;8.70;99.90
17529;DHT22;8882;53.192;8.184;2023-04-24T18:02:44;8.60;99.90
17529;DHT22;8882;53.192;8.184;2023-04-24T18:05:10;8.60;99.90
17529;DHT22;8882;53.192;8.184;2023-04-24T18:07:36;8.50;99.90
17529;DHT22;8882;53.192;8.184;2023-04-24T18:10:01;8.50;99.90
17529;DHT22;8882;53.192;8.184;2023-04-24T18:12:27;8.50;99.90
17529;DHT22;8882;53.192;8.184;2023-04-24T18:14:53;8.50;99.90
17529;DHT22;8882;53.192;8.184;2023-04-24T18:17:19;8.50;99.90
17529;DHT22;8882;53.192;8.184;2023-04-24T18:19:44;8.40;99.90
17529;DHT22;8882;53.192;8.184;2023-04-24T18:22:10;8.40;99.90
17529;DHT22;8882;53.192;8.184;2023-04-24T18:24:35;8.40;99.90
17529;DHT22;8882;53.192;8.184;2023-04-24T18:27:01;8.40;99.90
17529;DHT22;8882;53.192;8.184;2023-04-24T18:29:27;8.40;99.90
17529;DHT22;8882;53.192;8.184;2023-04-24T18:31:52;8.30;99.90
17529;DHT22;8882;53.192;8.184;2023-04-24T18:34:18;8.40;99.90
17529;DHT22;8882;53.192;8.184;2023-04-24T18:36:43;8.30;99.90
17529;DHT22;8882;53.192;8.184;2023-04-24T18:39:09;8.30;99.90
17529;DHT22;8882;53.192;8.184;2023-04-24T18:41:34;8.30;99.90
17529;DHT22;8882;53.192;8.184;2023-04-24T18:44:00;8.30;99.90
17529;DHT22;8882;53.192;8.184;2023-04-24T18:46:25;8.30;99.90
17529;DHT22;8882;53.192;8.184;2023-04-24T18:48:51;8.30;99.90
17529;DHT22;8882;53.192;8.184;2023-04-24T18:51:16;8.30;99.90
17529;DHT22;8882;53.192;8.184;2023-04-24T18:53:42;8.30;99.90
17529;DHT22;8882;53.192;8.184;2023-04-24T18:56:07;8.30;99.90
17529;DHT22;8882;53.192;8.184;2023-04-24T18:58:33;8.30;99.90
17529;DHT22;8882;53.192;8.184;2023-04-24T19:00:58;8.30;99.90
17529;DHT22;8882;53.192;8.184;2023-04-24T19:03:24;8.30;99.90
17529;DHT22;8882;53.192;8.184;2023-04-24T19:05:49;8.20;99.90
17529;DHT22;8882;53.192;8.184;2023-04-24T19:08:15;8.30;99.90
17529;DHT22;8882;53.192;8.184;2023-04-24T19:10:42;8.30;99.90
17529;DHT22;8882;53.192;8.184;2023-04-24T19:13:07;8.30;99.90
17529;DHT22;8882;53.192;8.184;2023-04-24T19:15:33;8.30;99.90
17529;DHT22;8882;53.192;8.184;2023-04-24T19:17:58;8.30;99.90
17529;DHT22;8882;53.192;8.184;2023-04-24T19:20:25;8.30;99.90
17529;DHT22;8882;53.192;8.184;2023-04-24T19:22:51;8.30;99.90
17529;DHT22;8882;53.192;8.184;2023-04-24T19:25:16;8.30;99.90
17529;DHT22;8882;53.192;8.184;2023-04-24T19:27:42;8.30;99.90
17529;DHT22;8882;53.192;8.184;2023-04-24T19:30:08;8.30;99.90
17529;DHT22;8882;53.192;8.184;2023-04-24T19:32:33;8.20;99.90
17529;DHT22;8882;53.192;8.184;2023-04-24T19:34:59;8.30;99.90
17529;DHT22;8882;53.192;8.184;2023-04-24T19:37:25;8.30;99.90
17529;DHT22;8882;53.192;8.184;2023-04-24T19:39:50;8.30;99.90
17529;DHT22;8882;53.192;8.184;2023-04-24T19:42:16;8.20;99.90
17529;DHT22;8882;53.192;8.184;2023-04-24T19:44:41;8.10;99.90
17529;DHT22;8882;53.192;8.184;2023-04-24T19:47:07;8.10;99.90
17529;DHT22;8882;53.192;8.184;2023-04-24T19:49:33;8.00;99.90
17529;DHT22;8882;53.192;8.184;2023-04-24T19:51:58;8.00;99.90
17529;DHT22;8882;53.192;8.184;2023-04-24T19:54:24;8.00;99.90
17529;DHT22;8882;53.192;8.184;2023-04-24T19:56:50;8.00;99.90
17529;DHT22;8882;53.192;8.184;2023-04-24T19:59:15;8.00;99.90
17529;DHT22;8882;53.192;8.184;2023-04-24T20:01:41;7.90;99.90
17529;DHT22;8882;53.192;8.184;2023-04-24T20:04:08;7.90;99.90
17529;DHT22;8882;53.192;8.184;2023-04-24T20:06:36;7.80;99.90
17529;DHT22;8882;53.192;8.184;2023-04-24T20:09:01;7.90;99.90
17529;DHT22;8882;53.192;8.184;2023-04-24T20:11:30;7.90;99.90
17529;DHT22;8882;53.192;8.184;2023-04-24T20:13:55;7.90;99.90
17529;DHT22;8882;53.192;8.184;2023-04-24T20:16:21;7.90;99.90
17529;DHT22;8882;53.192;8.184;2023-04-24T20:18:46;7.90;99.90
17529;DHT22;8882;53.192;8.184;2023-04-24T20:21:13;7.80;99.90
17529;DHT22;8882;53.192;8.184;2023-04-24T20:23:38;7.90;99.90
17529;DHT22;8882;53.192;8.184;2023-04-24T20:26:04;7.80;99.90
17529;DHT22;8882;53.192;8.184;2023-04-24T20:28:32;7.80;99.90
17529;DHT22;8882;53.192;8.184;2023-04-24T20:30:58;7.80;99.90
17529;DHT22;8882;53.192;8.184;2023-04-24T20:33:24;7.80;99.90
17529;DHT22;8882;53.192;8.184;2023-04-24T20:35:50;7.90;99.90
17529;DHT22;8882;53.192;8.184;2023-04-24T20:38:16;7.90;99.90
17529;DHT22;8882;53.192;8.184;2023-04-24T20:40:43;7.90;99.90